createdAt,value
2018-06-28T08:17:03.892Z,27.6
2018-06-28T08:17:54.202Z,27.5
2018-06-28T08:18:44.247Z,27.4
2018-06-28T08:19:34.324Z,27.4
2018-06-28T08:20:24.397Z,27.3
2018-06-28T08:21:14.454Z,27.3
2018-06-28T08:22:04.524Z,27.3
2018-06-28T08:22:54.016Z,27.2
2018-06-28T08:23:44.645Z,27.2
2018-06-28T08:24:34.135Z,27.1
2018-06-28T08:25:24.777Z,27.1
2018-06-28T08:26:14.559Z,27.1
2018-06-28T08:27:05.468Z,27.1
2018-06-28T08:27:54.682Z,27.1
2018-06-28T08:28:44.444Z,27.2
2018-06-28T08:29:35.073Z,27.2
2018-06-28T08:30:24.289Z,27.2
2018-06-28T08:31:14.934Z,27.3
2018-06-28T08:32:04.978Z,27.4
2018-06-28T08:32:55.331Z,27.4
2018-06-28T08:33:45.111Z,27.5
2018-06-28T08:34:35.179Z,27.6
2018-06-28T08:35:25.261Z,27.8
2018-06-28T08:36:15.855Z,27.9
2018-06-28T08:37:05.656Z,28
2018-06-28T08:37:55.426Z,28.1
2018-06-28T08:38:45.494Z,28.3
2018-06-28T08:39:35.828Z,28.3
2018-06-28T08:40:25.935Z,28.4
2018-06-28T08:41:15.738Z,28.6
2018-06-28T08:42:05.740Z,28.6
2018-06-28T08:42:55.898Z,28.8
2018-06-28T08:43:46.127Z,28.8
2018-06-28T08:44:36.249Z,28.8
2018-06-28T08:45:26.278Z,28.8
2018-06-28T08:46:16.317Z,28.8
2018-06-28T08:47:06.379Z,28.7
2018-06-28T08:47:56.442Z,28.6
2018-06-28T08:48:46.232Z,28.6
2018-06-28T08:49:36.566Z,28.6
2018-06-28T08:50:26.382Z,28.5
2018-06-28T08:51:16.721Z,28.5
2018-06-28T08:52:06.789Z,28.4
2018-06-28T08:52:56.841Z,28.3
2018-06-28T08:53:46.622Z,28.3
2018-06-28T08:54:37.002Z,28.2
2018-06-28T08:55:26.484Z,28.2
2018-06-28T08:56:17.103Z,28.1
2018-06-28T08:57:07.162Z,28
2018-06-28T08:57:56.691Z,27.9
2018-06-28T08:59:37.380Z,27.8
2018-06-28T09:00:27.404Z,27.6
2018-06-28T09:01:17.440Z,27.5
2018-06-28T09:02:07.516Z,27.4
2018-06-28T09:02:57.311Z,27.4
2018-06-28T09:03:47.705Z,27.3
2018-06-28T09:04:37.423Z,27.2
2018-06-28T09:05:27.780Z,27.1
2018-06-28T09:06:17.861Z,27
2018-06-28T09:07:07.900Z,26.9
2018-06-28T09:07:57.686Z,26.8
2018-06-28T09:08:48.014Z,26.8
2018-06-28T09:09:37.814Z,26.6
2018-06-28T09:10:27.861Z,26.6
2018-06-28T09:11:18.023Z,26.5
2018-06-28T09:12:07.999Z,26.5
2018-06-28T09:12:58.322Z,26.4
2018-06-28T09:13:48.382Z,26.4
2018-06-28T09:14:38.188Z,26.4
2018-06-28T09:15:29.121Z,26.4
2018-06-28T09:16:18.581Z,26.4
2018-06-28T09:17:08.656Z,26.4
2018-06-28T09:17:58.151Z,26.4
2018-06-28T09:18:48.775Z,26.4
2018-06-28T09:19:38.835Z,26.4
2018-06-28T09:20:28.436Z,26.5
2018-06-28T09:21:18.955Z,26.5
2018-06-28T09:22:08.753Z,26.6
2018-06-28T09:22:59.446Z,26.7
2018-06-28T09:23:49.148Z,26.8
2018-06-28T09:24:38.958Z,26.9
2018-06-28T09:25:29.266Z,26.9
2018-06-28T09:26:19.039Z,27.1
2018-06-28T09:27:09.386Z,27.3
2018-06-28T09:27:59.473Z,27.4
2018-06-28T09:28:49.258Z,27.6
2018-06-28T09:29:39.016Z,27.7
2018-06-28T09:30:29.468Z,27.9
2018-06-28T09:31:19.429Z,28.1
2018-06-28T09:32:09.772Z,28.2
2018-06-28T09:32:59.819Z,28.4
2018-06-28T09:33:49.899Z,28.6
2018-06-28T09:34:39.990Z,28.7
2018-06-28T09:35:30.015Z,28.9
2018-06-28T09:36:20.071Z,29.1
2018-06-28T09:37:09.877Z,29.2
2018-06-28T09:38:00.209Z,29.3
2018-06-28T09:38:50.263Z,29.4
2018-06-28T09:39:40.344Z,29.5
2018-06-28T09:40:30.399Z,29.6
2018-06-28T09:41:20.211Z,29.7
2018-06-28T09:42:09.987Z,29.8
2018-06-28T09:43:00.585Z,29.8
2018-06-28T09:43:50.385Z,29.8
2018-06-28T09:44:40.544Z,29.8
2018-06-28T09:45:30.818Z,29.8
2018-06-28T09:46:20.838Z,29.8
2018-06-28T09:47:10.887Z,29.8
2018-06-28T09:48:00.684Z,29.8
2018-06-28T09:48:51.026Z,29.6
2018-06-28T09:49:41.083Z,29.6
2018-06-28T09:50:31.161Z,29.5
2018-06-28T09:51:20.942Z,29.4
2018-06-28T09:52:11.030Z,29.4
2018-06-28T09:53:01.335Z,29.3
2018-06-28T09:53:51.125Z,29.3
2018-06-28T09:54:41.336Z,29.2
2018-06-28T09:55:31.548Z,29.1
2018-06-28T09:56:21.052Z,29.1
2018-06-28T09:57:11.378Z,29
2018-06-28T09:58:01.714Z,28.9
2018-06-28T09:58:51.493Z,28.9
2018-06-28T09:59:41.560Z,28.8
2018-06-28T10:00:32.813Z,28.8
2018-06-28T10:01:21.971Z,28.7
2018-06-28T10:02:12.062Z,28.6
2018-06-28T10:03:02.112Z,28.6
2018-06-28T10:03:51.869Z,28.5
2018-06-28T10:04:42.284Z,28.4
2018-06-28T10:05:32.305Z,28.4
2018-06-28T10:06:21.522Z,28.3
2018-06-28T10:07:11.882Z,28.2
2018-06-28T10:08:02.187Z,28.1
2018-06-28T10:08:52.526Z,28.1
2018-06-28T10:09:42.606Z,28.1
2018-06-28T10:10:32.122Z,28
2018-06-28T10:11:22.450Z,28
2018-06-28T10:12:12.800Z,28
2018-06-28T10:13:02.847Z,28
2018-06-28T10:13:52.653Z,27.9
2018-06-28T10:14:43.233Z,28
2018-06-28T10:15:33.034Z,28
2018-06-28T10:16:23.198Z,28
2018-06-28T10:17:13.158Z,28.1
2018-06-28T10:18:03.565Z,28.1
2018-06-28T10:18:53.282Z,28.1
2018-06-28T10:19:43.410Z,28.1
2018-06-28T10:20:32.938Z,28.1
2018-06-28T10:21:23.472Z,28.1
2018-06-28T10:22:13.546Z,28.1
2018-06-28T10:23:03.645Z,28.1
2018-06-28T10:23:53.123Z,28.1
2018-06-28T10:24:44.274Z,28.1
2018-06-28T10:25:33.501Z,28.1
2018-06-28T10:26:23.845Z,28.1
2018-06-28T10:27:13.675Z,28.1
2018-06-28T10:28:03.703Z,28.1
2018-06-28T10:28:54.034Z,28
2018-06-28T10:29:44.157Z,27.9
2018-06-28T10:30:34.162Z,27.9
2018-06-28T10:31:24.276Z,27.9
2018-06-28T10:33:04.367Z,27.8
2018-06-28T10:33:54.414Z,27.8
2018-06-28T10:34:44.473Z,27.7
2018-06-28T10:35:34.536Z,27.6
2018-06-28T10:36:24.605Z,27.6
2018-06-28T10:37:14.652Z,27.5
2018-06-28T10:38:04.716Z,27.5
2018-06-28T10:38:54.510Z,27.4
2018-06-28T10:39:44.860Z,27.4
2018-06-28T10:40:34.382Z,27.4
2018-06-28T10:41:24.978Z,27.4
2018-06-28T10:42:15.038Z,27.4
2018-06-28T10:43:05.107Z,27.4
2018-06-28T10:43:55.171Z,27.3
2018-06-28T10:44:45.257Z,27.4
2018-06-28T10:45:35.314Z,27.4
2018-06-28T10:46:25.348Z,27.3
2018-06-28T10:47:15.405Z,27.3
2018-06-28T10:48:05.498Z,27.3
2018-06-28T10:48:55.267Z,27.3
2018-06-28T10:49:45.619Z,27.3
2018-06-28T10:50:35.724Z,27.2
2018-06-28T10:51:24.902Z,27.1
2018-06-28T10:52:15.545Z,27.1
2018-06-28T10:53:05.588Z,27
2018-06-28T10:53:56.264Z,26.9
2018-06-28T10:54:46.012Z,26.9
2018-06-28T10:55:36.033Z,26.8
2018-06-28T10:56:26.080Z,26.7
2018-06-28T10:57:16.199Z,26.6
2018-06-28T10:58:05.996Z,26.6
2018-06-28T10:58:55.759Z,26.5
2018-06-28T10:59:46.395Z,26.4
2018-06-28T11:00:36.442Z,26.4
2018-06-28T11:01:26.230Z,26.4
2018-06-28T11:02:16.549Z,26.3
2018-06-28T11:03:06.359Z,26.3
2018-06-28T11:03:56.731Z,26.1
2018-06-28T11:04:46.462Z,26.1
2018-06-28T11:05:36.818Z,26
2018-06-28T11:06:26.597Z,25.9
2018-06-28T11:07:16.665Z,25.8
2018-06-28T11:08:07.036Z,25.8
2018-06-28T11:08:56.778Z,25.6
2018-06-28T11:09:46.848Z,25.6
2018-06-28T11:10:37.187Z,25.6
2018-06-28T11:11:26.967Z,25.6
2018-06-28T11:12:17.344Z,25.6
2018-06-28T11:13:07.096Z,25.6
2018-06-28T11:13:57.159Z,25.8
2018-06-28T11:14:47.507Z,25.9
2018-06-28T11:15:37.832Z,26.1
2018-06-28T11:16:27.626Z,26.3
2018-06-28T11:17:17.680Z,26.6
2018-06-28T11:18:07.737Z,26.9
2018-06-28T11:18:57.819Z,27.2
2018-06-28T11:19:47.870Z,27.6
2018-06-28T11:20:37.664Z,27.9
2018-06-28T11:21:27.733Z,28.3
2018-06-28T11:22:18.056Z,28.6
2018-06-28T11:23:07.901Z,29
2018-06-28T11:23:57.902Z,29.4
2018-06-28T11:24:48.247Z,29.7
2018-06-28T11:25:38.314Z,30
2018-06-28T11:26:28.408Z,30.3
2018-06-28T11:27:17.613Z,30.4
2018-06-28T11:28:08.498Z,30.6
2018-06-28T11:28:58.558Z,30.7
2018-06-28T11:29:48.664Z,30.7
2018-06-28T11:30:38.428Z,30.8
2018-06-28T11:31:28.455Z,30.7
2018-06-28T11:32:18.814Z,30.6
2018-06-28T11:33:08.873Z,30.5
2018-06-28T11:33:58.795Z,30.4
2018-06-28T11:34:48.723Z,30.4
2018-06-28T11:35:38.793Z,30.3
2018-06-28T11:36:28.578Z,30.3
2018-06-28T11:37:18.928Z,30.3
2018-06-28T11:38:09.252Z,30.3
2018-06-28T11:38:59.060Z,30.3
2018-06-28T11:39:49.398Z,30.3
2018-06-28T11:40:39.178Z,30.2
2018-06-28T11:41:29.509Z,30.2
2018-06-28T11:42:19.583Z,30.2
2018-06-28T11:43:09.638Z,30.1
2018-06-28T11:43:59.705Z,30.1
2018-06-28T11:44:49.473Z,30.1
2018-06-28T11:45:39.002Z,30
2018-06-28T11:46:29.050Z,29.9
2018-06-28T11:47:19.962Z,29.9
2018-06-28T11:48:09.760Z,29.9
2018-06-28T11:48:59.786Z,29.8
2018-06-28T11:49:49.892Z,29.8
2018-06-28T11:50:39.918Z,29.8
2018-06-28T11:51:30.287Z,29.8
2018-06-28T11:52:19.997Z,29.7
2018-06-28T11:53:10.400Z,29.6
2018-06-28T11:54:00.450Z,29.6
2018-06-28T11:54:50.512Z,29.6
2018-06-28T11:55:40.310Z,29.5
2018-06-28T11:56:30.641Z,29.4
2018-06-28T11:57:20.717Z,29.3
2018-06-28T11:58:10.202Z,29.3
2018-06-28T11:59:00.535Z,29.2
2018-06-28T11:59:50.621Z,29.1
2018-06-28T12:00:40.740Z,29.1
2018-06-28T12:01:30.724Z,29
2018-06-28T12:02:21.116Z,28.9
2018-06-28T12:03:11.204Z,28.8
2018-06-28T12:04:01.188Z,28.7
2018-06-28T12:04:51.255Z,28.6
2018-06-28T12:05:41.935Z,28.6
2018-06-28T12:06:31.113Z,28.5
2018-06-28T12:07:21.467Z,28.4
2018-06-28T12:08:11.225Z,28.3
2018-06-28T12:09:01.588Z,28.3
2018-06-28T12:09:51.638Z,28.2
2018-06-28T12:10:41.700Z,28.2
2018-06-28T12:11:31.765Z,28.1
2018-06-28T12:12:21.572Z,28.1
2018-06-28T12:13:11.887Z,28
2018-06-28T12:14:01.969Z,28
2018-06-28T12:14:52.049Z,28
2018-06-28T12:15:41.827Z,27.9
2018-06-28T12:16:32.149Z,27.9
2018-06-28T12:17:22.192Z,27.9
2018-06-28T12:18:11.979Z,27.9
2018-06-28T12:19:02.331Z,27.9
2018-06-28T12:19:52.150Z,27.9
2018-06-28T12:20:42.190Z,27.9
2018-06-28T12:21:32.516Z,27.9
2018-06-28T12:22:22.849Z,27.9
2018-06-28T12:23:12.117Z,27.9
2018-06-28T12:24:02.730Z,27.9
2018-06-28T12:24:52.787Z,27.9
2018-06-28T12:25:42.604Z,27.9
2018-06-28T12:26:32.624Z,27.9
2018-06-28T12:27:22.963Z,28
2018-06-28T12:28:12.762Z,28
2018-06-28T12:29:03.083Z,28
2018-06-28T12:29:53.164Z,28
2018-06-28T12:30:42.954Z,28
2018-06-28T12:31:33.268Z,28.1
2018-06-28T12:32:23.317Z,28.1
2018-06-28T12:33:13.136Z,28.1
2018-06-28T12:34:03.472Z,28.2
2018-06-28T12:34:53.538Z,28.3
2018-06-28T12:35:43.584Z,28.3
2018-06-28T12:36:33.653Z,28.3
2018-06-28T12:37:23.434Z,28.3
2018-06-28T12:38:13.553Z,28.4
2018-06-28T12:39:03.852Z,28.4
2018-06-28T12:39:53.616Z,28.4
2018-06-28T12:40:43.418Z,28.4
2018-06-28T12:41:33.738Z,28.4
2018-06-28T12:42:23.826Z,28.4
2018-06-28T12:43:14.154Z,28.3
2018-06-28T12:44:04.218Z,28.3
2018-06-28T12:44:54.289Z,28.2
2018-06-28T12:45:44.356Z,28.1
2018-06-28T12:46:34.825Z,28
2018-06-28T12:47:24.467Z,27.9
2018-06-28T12:48:14.264Z,27.9
2018-06-28T12:49:54.701Z,27.8
2018-06-28T12:50:44.727Z,27.8
2018-06-28T12:51:34.526Z,27.7
2018-06-28T12:52:24.607Z,27.6
2018-06-28T12:53:14.928Z,27.6
2018-06-28T12:54:04.995Z,27.6
2018-06-28T12:54:55.025Z,27.6
2018-06-28T12:55:44.847Z,27.5
2018-06-28T12:56:35.167Z,27.4
2018-06-28T12:57:25.231Z,27.4
2018-06-28T12:58:15.015Z,27.3
2018-06-28T12:59:04.791Z,27.3
2018-06-28T12:59:55.032Z,27.3
2018-06-28T13:00:45.645Z,27.3
2018-06-28T13:01:35.594Z,27.2
2018-06-28T13:02:25.618Z,27.2
2018-06-28T13:03:15.675Z,27.1
2018-06-28T13:04:05.462Z,27.1
2018-06-28T13:04:55.523Z,27.1
2018-06-28T13:05:45.570Z,27
2018-06-28T13:06:35.937Z,26.9
2018-06-28T13:07:25.723Z,26.9
2018-06-28T13:08:15.822Z,26.9
2018-06-28T13:09:06.163Z,26.9
2018-06-28T13:09:56.168Z,26.9
2018-06-28T13:10:46.228Z,26.9
2018-06-28T13:11:36.049Z,26.9
2018-06-28T13:12:25.825Z,26.8
2018-06-28T13:13:16.442Z,26.9
2018-06-28T13:14:06.535Z,26.9
2018-06-28T13:14:56.295Z,26.9
2018-06-28T13:15:46.615Z,26.9
2018-06-28T13:16:36.669Z,26.9
2018-06-28T13:17:26.742Z,26.9
2018-06-28T13:18:16.512Z,26.9
2018-06-28T13:19:06.889Z,26.9
2018-06-28T13:19:57.148Z,26.9
2018-06-28T13:20:47.012Z,26.9
2018-06-28T13:21:37.047Z,26.9
2018-06-28T13:22:27.123Z,26.9
2018-06-28T13:23:17.189Z,26.9
2018-06-28T13:24:07.254Z,26.9
2018-06-28T13:24:57.301Z,26.9
2018-06-28T13:25:46.816Z,26.9
2018-06-28T13:26:37.163Z,26.9
2018-06-28T13:27:27.535Z,26.9
2018-06-28T13:28:17.564Z,26.9
2018-06-28T13:29:07.624Z,26.9
2018-06-28T13:29:57.400Z,26.9
2018-06-28T13:30:47.780Z,26.9
2018-06-28T13:31:36.990Z,26.9
2018-06-28T13:32:27.871Z,26.9
2018-06-28T13:33:17.700Z,26.9
2018-06-28T13:34:08.022Z,27
2018-06-28T13:34:58.085Z,27
2018-06-28T13:35:47.843Z,27
2018-06-28T13:36:37.896Z,27
2018-06-28T13:37:28.259Z,27.1
2018-06-28T13:38:17.741Z,27
2018-06-28T13:39:08.437Z,27.1
2018-06-28T13:39:58.428Z,27.1
2018-06-28T13:40:49.586Z,27.1
2018-06-28T13:41:41.739Z,27.1
2018-06-28T13:42:28.417Z,27.1
2018-06-28T13:43:18.683Z,27.1
2018-06-28T13:44:08.240Z,27.1
2018-06-28T13:44:58.526Z,27.2
2018-06-28T13:45:48.609Z,27.2
2018-06-28T13:46:38.982Z,27.3
2018-06-28T13:47:29.054Z,27.3
2018-06-28T13:48:18.822Z,27.3
2018-06-28T13:49:09.467Z,27.4
2018-06-28T13:49:58.925Z,27.4
2018-06-28T13:50:49.267Z,27.4
2018-06-28T13:51:39.031Z,27.5
2018-06-28T13:52:29.115Z,27.6
2018-06-28T13:53:19.151Z,27.6
2018-06-28T13:54:09.510Z,27.7
2018-06-28T13:54:59.558Z,27.8
2018-06-28T13:57:29.775Z,27.9
2018-06-28T13:58:19.848Z,27.9
2018-06-28T13:59:09.338Z,27.9
2018-06-28T13:59:59.975Z,27.9
2018-06-28T14:00:50.061Z,27.9
2018-06-28T14:01:39.851Z,27.9
2018-06-28T14:02:29.584Z,27.9
2018-06-28T14:04:09.990Z,27.8
2018-06-28T14:05:00.325Z,27.7
2018-06-28T14:05:50.156Z,27.6
2018-06-28T14:06:40.455Z,27.5
2018-06-28T14:07:30.239Z,27.4
2018-06-28T14:08:20.026Z,27.3
2018-06-28T14:09:10.635Z,27.2
2018-06-28T14:10:00.421Z,27.1
2018-06-28T14:10:50.210Z,27
2018-06-28T14:11:40.827Z,26.9
2018-06-28T14:12:30.888Z,26.8
2018-06-28T14:13:20.671Z,26.8
2018-06-28T14:14:10.738Z,26.6
2018-06-28T14:15:01.079Z,26.6
2018-06-28T14:15:51.168Z,26.4
2018-06-28T14:16:41.192Z,26.3
2018-06-28T14:17:31.273Z,26.2
2018-06-28T14:18:21.054Z,26.1
2018-06-28T14:19:11.394Z,26.1
2018-06-28T14:20:01.183Z,26
2018-06-28T14:20:51.232Z,25.9
2018-06-28T14:21:41.556Z,25.8
2018-06-28T14:22:31.373Z,25.7
2018-06-28T14:23:21.426Z,25.6
2018-06-28T14:24:11.488Z,25.6
2018-06-28T14:25:01.820Z,25.5
2018-06-28T14:25:52.324Z,25.4
2018-06-28T14:26:41.667Z,25.4
2018-06-28T14:27:32.026Z,25.3
2018-06-28T14:28:22.076Z,25.3
2018-06-28T14:29:11.572Z,25.2
2018-06-28T14:30:02.197Z,25.2
2018-06-28T14:30:52.248Z,25.1
2018-06-28T14:31:42.327Z,25.2
2018-06-28T14:32:32.388Z,25.2
2018-06-28T14:33:22.148Z,25.3
2018-06-28T14:34:12.505Z,25.3
2018-06-28T14:35:02.805Z,25.3
2018-06-28T14:35:52.392Z,25.3
2018-06-28T14:36:42.696Z,25.4
2018-06-28T14:37:32.781Z,25.5
2018-06-28T14:38:22.843Z,25.6
2018-06-28T14:39:12.922Z,25.8
2018-06-28T14:40:02.391Z,25.9
2018-06-28T14:40:52.733Z,26
2018-06-28T14:41:43.426Z,26.1
2018-06-28T14:42:33.115Z,26.2
2018-06-28T14:43:22.956Z,26.3
2018-06-28T14:44:13.253Z,26.3
2018-06-28T14:45:04.331Z,26.4
2018-06-28T14:45:53.373Z,26.4
2018-06-28T14:46:43.444Z,26.5
2018-06-28T14:47:33.813Z,26.6
2018-06-28T14:48:23.583Z,26.6
2018-06-28T14:49:13.656Z,26.7
2018-06-28T14:50:03.445Z,26.8
2018-06-28T14:50:53.773Z,26.8
2018-06-28T14:51:43.840Z,26.8
2018-06-28T14:52:33.090Z,26.8
2018-06-28T14:53:23.979Z,26.8
2018-06-28T14:54:13.747Z,26.8
2018-06-28T14:55:03.809Z,26.8
2018-06-28T14:55:54.158Z,26.8
2018-06-28T14:56:44.213Z,26.8
2018-06-28T14:57:34.274Z,26.8
2018-06-28T14:58:24.056Z,26.8
2018-06-28T14:59:14.396Z,26.7
2018-06-28T15:00:04.475Z,26.7
2018-06-28T15:00:54.524Z,26.6
2018-06-28T15:01:44.319Z,26.6
2018-06-28T15:02:34.637Z,26.5
2018-06-28T15:03:24.439Z,26.4
2018-06-28T15:04:14.140Z,26.4
2018-06-28T15:05:04.569Z,26.3
2018-06-28T15:05:54.375Z,26.3
2018-06-28T15:06:44.694Z,26.3
2018-06-28T15:07:34.765Z,26.3
2018-06-28T15:08:24.833Z,26.2
2018-06-28T15:09:15.165Z,26.2
2018-06-28T15:10:05.235Z,26.1
2018-06-28T15:10:55.274Z,26.1
2018-06-28T15:11:45.399Z,26
2018-06-28T15:12:35.411Z,26
2018-06-28T15:13:25.187Z,25.9
2018-06-28T15:14:15.527Z,25.9
2018-06-28T15:15:05.593Z,25.9
2018-06-28T15:15:55.656Z,25.9
2018-06-28T15:16:45.724Z,25.9
2018-06-28T15:17:35.776Z,25.8
2018-06-28T15:18:25.835Z,25.8
2018-06-28T15:19:16.119Z,25.8
2018-06-28T15:20:05.691Z,25.8
2018-06-28T15:20:56.075Z,25.8
2018-06-28T15:21:46.115Z,25.7
2018-06-28T15:22:36.208Z,25.8
2018-06-28T15:23:26.224Z,25.7
2018-06-28T15:24:16.295Z,25.7
2018-06-28T15:25:06.369Z,25.7
2018-06-28T15:25:56.144Z,25.6
2018-06-28T15:26:46.504Z,25.6
2018-06-28T15:27:36.747Z,25.6
2018-06-28T15:28:26.613Z,25.6
2018-06-28T15:29:16.666Z,25.6
2018-06-28T15:30:06.171Z,25.5
2018-06-28T15:30:56.231Z,25.4
2018-06-28T15:31:46.897Z,25.4
2018-06-28T15:32:36.363Z,25.4
2018-06-28T15:33:27.232Z,25.4
2018-06-28T15:34:16.782Z,25.4
2018-06-28T15:35:07.108Z,25.3
2018-06-28T15:35:57.239Z,25.3
2018-06-28T15:36:47.235Z,25.3
2018-06-28T15:37:37.283Z,25.2
2018-06-28T15:38:26.798Z,25.1
2018-06-28T15:39:17.415Z,25.1
2018-06-28T15:40:07.475Z,25
2018-06-28T15:40:57.097Z,25
2018-06-28T15:41:47.612Z,24.9
2018-06-28T15:42:37.642Z,24.9
2018-06-28T15:43:27.149Z,24.9
2018-06-28T15:44:17.787Z,24.8
2018-06-28T15:45:07.567Z,24.8
2018-06-28T15:45:57.969Z,24.7
2018-06-28T15:46:47.427Z,24.6
2018-06-28T15:47:37.821Z,24.6
2018-06-28T15:48:28.114Z,24.5
2018-06-28T15:49:18.151Z,24.4
2018-06-28T15:50:08.225Z,24.4
2018-06-28T15:50:58.268Z,24.3
2018-06-28T15:51:48.340Z,24.2
2018-06-28T15:52:38.422Z,24.1
2018-06-28T15:53:28.189Z,24.1
2018-06-28T15:54:17.972Z,24
2018-06-28T15:55:08.307Z,23.9
2018-06-28T15:55:58.382Z,23.9
2018-06-28T15:56:48.726Z,23.8
2018-06-28T15:57:38.893Z,23.8
2018-06-28T15:58:28.357Z,23.8
2018-06-28T15:59:18.425Z,23.7
2018-06-28T16:00:09.013Z,23.7
2018-06-28T16:00:59.036Z,23.6
2018-06-28T16:01:48.816Z,23.6
2018-06-28T16:02:38.695Z,23.6
2018-06-28T16:03:28.958Z,23.5
2018-06-28T16:04:19.026Z,23.4
2018-06-28T16:05:09.098Z,23.4
2018-06-28T16:05:59.418Z,23.4
2018-06-28T16:06:49.201Z,23.4
2018-06-28T16:07:39.557Z,23.3
2018-06-28T16:08:29.600Z,23.3
2018-06-28T16:09:19.664Z,23.2
2018-06-28T16:10:09.236Z,23.2
2018-06-28T16:10:59.546Z,23.1
2018-06-28T16:11:49.355Z,23.1
2018-06-28T16:12:39.342Z,23
2018-06-28T16:13:29.979Z,22.9
2018-06-28T16:14:20.031Z,22.9
2018-06-28T16:15:09.813Z,22.9
2018-06-28T16:15:59.891Z,22.8
2018-06-28T16:16:49.805Z,22.8
2018-06-28T16:17:39.577Z,22.8
2018-06-28T16:18:30.074Z,22.8
2018-06-28T16:19:20.396Z,22.7
2018-06-28T16:20:10.483Z,22.6
2018-06-28T16:21:00.282Z,22.6
2018-06-28T16:21:50.614Z,22.6
2018-06-28T16:22:40.674Z,22.5
2018-06-28T16:23:31.054Z,22.5
2018-06-28T16:24:20.241Z,22.4
2018-06-28T16:25:10.574Z,22.4
2018-06-28T16:26:00.699Z,22.4
2018-06-28T16:26:51.013Z,22.4
2018-06-28T16:27:41.058Z,22.3
2018-06-28T16:28:31.124Z,22.3
2018-06-28T16:29:21.219Z,22.3
2018-06-28T16:30:11.264Z,22.3
2018-06-28T16:31:00.765Z,22.3
2018-06-28T16:31:51.397Z,22.2
2018-06-28T16:32:41.164Z,22.2
2018-06-28T16:33:31.492Z,22.2
2018-06-28T16:34:21.610Z,22.2
2018-06-28T16:35:11.636Z,22.2
2018-06-28T16:36:01.699Z,22.2
2018-06-28T16:36:51.485Z,22.2
2018-06-28T16:37:41.549Z,22.1
2018-06-28T16:38:31.864Z,22.1
2018-06-28T16:39:22.166Z,22.1
2018-06-28T16:40:12.012Z,22.1
2018-06-28T16:41:02.052Z,22.1
2018-06-28T16:41:51.841Z,22.1
2018-06-28T16:42:41.920Z,22.1
2018-06-28T16:43:31.962Z,22.1
2018-06-28T16:44:22.070Z,22.1
2018-06-28T16:45:12.404Z,22
2018-06-28T16:46:02.465Z,22
2018-06-28T16:46:52.525Z,21.9
2018-06-28T16:47:42.579Z,21.8
2018-06-28T16:48:32.630Z,21.8
2018-06-28T16:49:22.167Z,21.8
2018-06-28T16:50:12.772Z,21.8
2018-06-28T16:51:02.605Z,21.7
2018-06-28T16:51:52.610Z,21.7
2018-06-28T16:52:42.688Z,21.6
2018-06-28T16:53:32.724Z,21.6
2018-06-28T16:54:22.812Z,21.6
2018-06-28T16:55:13.137Z,21.5
2018-06-28T16:56:03.248Z,21.4
2018-06-28T16:56:53.300Z,21.4
2018-06-28T16:57:43.298Z,21.4
2018-06-28T16:58:33.375Z,21.3
2018-06-28T16:59:23.916Z,21.3
2018-06-28T17:00:13.504Z,21.3
2018-06-28T17:01:03.579Z,21.2
2018-06-28T17:02:43.678Z,21.1
2018-06-28T17:03:33.744Z,21.1
2018-06-28T17:04:24.192Z,21
2018-06-28T17:05:13.867Z,20.9
2018-06-28T17:06:03.943Z,20.9
2018-06-28T17:06:54.010Z,20.8
2018-06-28T17:07:44.627Z,20.8
2018-06-28T17:08:34.131Z,20.8
2018-06-28T17:09:23.928Z,20.7
2018-06-28T17:10:13.955Z,20.6
2018-06-28T17:11:04.327Z,20.6
2018-06-28T17:11:54.373Z,20.6
2018-06-28T17:12:44.446Z,20.4
2018-06-28T17:13:34.502Z,20.4
2018-06-28T17:14:24.725Z,20.4
2018-06-28T17:15:14.625Z,20.4
2018-06-28T17:16:04.431Z,20.3
2018-06-28T17:16:54.765Z,20.2
2018-06-28T17:17:43.792Z,20.2
2018-06-28T17:18:34.885Z,20.1
2018-06-28T17:19:24.686Z,20.1
2018-06-28T17:20:14.992Z,20
2018-06-28T17:21:05.078Z,19.9
2018-06-28T17:21:54.851Z,19.9
2018-06-28T17:22:45.216Z,19.9
2018-06-28T17:23:35.298Z,19.8
2018-06-28T17:24:24.583Z,19.8
2018-06-28T17:25:15.203Z,19.7
2018-06-28T17:26:04.895Z,19.7
2018-06-28T17:26:55.333Z,19.6
2018-06-28T17:27:45.298Z,19.6
2018-06-28T17:28:35.108Z,19.6
2018-06-28T17:29:25.430Z,19.5
2018-06-28T17:30:15.774Z,19.4
2018-06-28T17:31:05.838Z,19.4
2018-06-28T17:31:56.683Z,19.4
2018-06-28T17:32:46.106Z,19.3
2018-06-28T17:33:35.752Z,19.3
2018-06-28T17:34:25.794Z,19.3
2018-06-28T17:35:15.306Z,19.2
2018-06-28T17:36:06.219Z,19.1
2018-06-28T17:36:56.277Z,19.1
2018-06-28T17:37:46.389Z,19.1
2018-06-28T17:38:36.405Z,19
2018-06-28T17:39:26.197Z,19
2018-06-28T17:40:16.256Z,18.9
2018-06-28T17:41:06.049Z,18.9
2018-06-28T17:41:56.642Z,18.9
2018-06-28T17:42:46.572Z,18.8
2018-06-28T17:43:36.771Z,18.8
2018-06-28T17:44:26.880Z,18.8
2018-06-28T17:46:06.670Z,18.6
2018-06-28T17:46:57.018Z,18.6
2018-06-28T17:47:46.825Z,18.6
2018-06-28T17:48:37.151Z,18.5
2018-06-28T17:49:27.206Z,18.5
2018-06-28T17:50:17.273Z,18.4
2018-06-28T17:51:07.650Z,18.4
2018-06-28T17:51:57.390Z,18.4
2018-06-28T17:52:47.476Z,18.3
2018-06-28T17:53:37.550Z,18.3
2018-06-28T17:54:27.654Z,18.3
2018-06-28T17:55:17.649Z,18.2
2018-06-28T17:56:07.719Z,18.2
2018-06-28T17:56:57.788Z,18.1
2018-06-28T17:57:47.588Z,18.1
2018-06-28T17:58:37.891Z,18.1
2018-06-28T17:59:27.984Z,18
2018-06-28T18:00:18.052Z,18
2018-06-28T18:01:08.081Z,17.9
2018-06-28T18:01:58.160Z,17.9
2018-06-28T18:02:48.217Z,17.9
2018-06-28T18:03:38.180Z,17.8
2018-06-28T18:04:27.864Z,17.8
2018-06-28T18:05:17.946Z,17.8
2018-06-28T18:06:08.204Z,17.8
2018-06-28T18:06:58.260Z,17.7
2018-06-28T18:07:48.333Z,17.7
2018-06-28T18:08:38.670Z,17.6
2018-06-28T18:09:28.807Z,17.6
2018-06-28T18:10:18.792Z,17.6
2018-06-28T18:11:08.836Z,17.6
2018-06-28T18:11:58.919Z,17.5
2018-06-28T18:12:49.479Z,17.5
2018-06-28T18:13:39.172Z,17.4
2018-06-28T18:14:29.097Z,17.4
2018-06-28T18:15:19.402Z,17.4
2018-06-28T18:16:09.230Z,17.4
2018-06-28T18:16:59.022Z,17.3
2018-06-28T18:17:49.357Z,17.3
2018-06-28T18:18:39.489Z,17.3
2018-06-28T18:19:29.484Z,17.3
2018-06-28T18:20:19.261Z,17.2
2018-06-28T18:21:09.611Z,17.2
2018-06-28T18:21:59.374Z,17.1
2018-06-28T18:22:49.251Z,17.1
2018-06-28T18:23:38.759Z,17.1
2018-06-28T18:24:29.364Z,17.1
2018-06-28T18:25:19.666Z,17.1
2018-06-28T18:26:59.782Z,16.9
2018-06-28T18:27:49.838Z,16.9
2018-06-28T18:28:40.173Z,16.9
2018-06-28T18:29:29.954Z,16.9
2018-06-28T18:30:20.747Z,16.8
2018-06-28T18:31:09.791Z,16.8
2018-06-28T18:32:00.419Z,16.8
2018-06-28T18:32:50.518Z,16.8
2018-06-28T18:33:40.559Z,16.8
2018-06-28T18:34:30.335Z,16.7
2018-06-28T18:35:20.381Z,16.7
2018-06-28T18:36:10.715Z,16.6
2018-06-28T18:37:00.772Z,16.6
2018-06-28T18:37:50.283Z,16.6
2018-06-28T18:38:40.921Z,16.6
2018-06-28T18:39:30.986Z,16.6
2018-06-28T18:40:21.082Z,16.5
2018-06-28T18:41:11.111Z,16.5
2018-06-28T18:42:00.335Z,16.4
2018-06-28T18:42:51.222Z,16.4
2018-06-28T18:43:41.320Z,16.4
2018-06-28T18:44:31.105Z,16.4
2018-06-28T18:45:21.159Z,16.4
2018-06-28T18:46:11.204Z,16.4
2018-06-28T18:47:00.990Z,16.3
2018-06-28T18:47:51.063Z,16.3
2018-06-28T18:48:41.689Z,16.3
2018-06-28T18:49:31.169Z,16.3
2018-06-28T18:50:21.528Z,16.2
2018-06-28T18:51:11.570Z,16.2
2018-06-28T18:52:01.940Z,16.2
2018-06-28T18:52:51.706Z,16.2
2018-06-28T18:53:42.114Z,16.2
2018-06-28T18:54:31.840Z,16.1
2018-06-28T18:55:21.884Z,16.1
2018-06-28T18:56:12.259Z,16.1
2018-06-28T18:57:02.311Z,16.1
2018-06-28T18:57:52.381Z,16.1
2018-06-28T18:58:42.432Z,16
2018-06-28T18:59:32.478Z,16
2018-06-28T19:00:22.281Z,16
2018-06-28T19:01:12.607Z,15.9
2018-06-28T19:02:02.869Z,15.9
2018-06-28T19:02:52.461Z,15.9
2018-06-28T19:03:42.816Z,15.9
2018-06-28T19:04:32.592Z,15.9
2018-06-28T19:05:22.651Z,15.9
2018-06-28T19:06:12.451Z,15.9
2018-06-28T19:07:02.760Z,15.9
2018-06-28T19:07:53.145Z,15.8
2018-06-28T19:08:42.949Z,15.8
2018-06-28T19:09:33.252Z,15.8
2018-06-28T19:10:23.045Z,15.8
2018-06-28T19:11:13.360Z,15.8
2018-06-28T19:12:03.423Z,15.8
2018-06-28T19:12:53.564Z,15.8
2018-06-28T19:13:43.615Z,15.8
2018-06-28T19:14:33.474Z,15.7
2018-06-28T19:15:23.672Z,15.7
2018-06-28T19:16:13.478Z,15.7
2018-06-28T19:17:03.816Z,15.7
2018-06-28T19:17:53.873Z,15.7
2018-06-28T19:18:43.948Z,15.6
2018-06-28T19:19:33.997Z,15.6
2018-06-28T19:20:23.510Z,15.6
2018-06-28T19:21:14.463Z,15.6
2018-06-28T19:22:04.181Z,15.6
2018-06-28T19:22:54.230Z,15.6
2018-06-28T19:23:44.301Z,15.6
2018-06-28T19:24:34.404Z,15.6
2018-06-28T19:25:24.453Z,15.5
2018-06-28T19:26:14.232Z,15.6
2018-06-28T19:27:04.290Z,15.5
2018-06-28T19:27:54.613Z,15.6
2018-06-28T19:28:44.411Z,15.5
2018-06-28T19:29:34.562Z,15.5
2018-06-28T19:30:24.583Z,15.5
2018-06-28T19:31:14.882Z,15.4
2018-06-28T19:32:04.939Z,15.4
2018-06-28T19:32:55.035Z,15.4
2018-06-28T19:33:45.077Z,15.4